sensor_id;sensor_type;location;lat;lon;timestamp;P1;durP1;ratioP1;P2;durP2;ratioP2
75616;SDS011;64200;55.426;37.758;2023-03-31T00:03:54;11.97;;;6.87;;
75616;SDS011;64200;55.426;37.758;2023-03-31T00:09:01;9.35;;;5.82;;
75616;SDS011;64200;55.426;37.758;2023-03-31T00:14:01;9.43;;;5.35;;
75616;SDS011;64200;55.426;37.758;2023-03-31T00:19:03;8.13;;;5.25;;
75616;SDS011;64200;55.426;37.758;2023-03-31T00:24:05;11.00;;;6.07;;
75616;SDS011;64200;55.426;37.758;2023-03-31T00:29:06;8.48;;;5.03;;
75616;SDS011;64200;55.426;37.758;2023-03-31T00:34:09;10.13;;;5.60;;
75616;SDS011;64200;55.426;37.758;2023-03-31T00:39:09;9.48;;;4.82;;
75616;SDS011;64200;55.426;37.758;2023-03-31T00:44:15;10.27;;;5.57;;
75616;SDS011;64200;55.426;37.758;2023-03-31T00:49:44;12.05;;;5.85;;
75616;SDS011;64200;55.426;37.758;2023-03-31T00:54:46;11.02;;;6.07;;
75616;SDS011;64200;55.426;37.758;2023-03-31T00:59:51;8.05;;;5.00;;
75616;SDS011;64200;55.426;37.758;2023-03-31T01:04:57;7.95;;;5.03;;
75616;SDS011;64200;55.426;37.758;2023-03-31T01:10:01;8.25;;;5.45;;
75616;SDS011;64200;55.426;37.758;2023-03-31T01:15:04;9.60;;;5.28;;
75616;SDS011;64200;55.426;37.758;2023-03-31T01:31:01;8.80;;;5.60;;
75616;SDS011;64200;55.426;37.758;2023-03-31T01:57:35;7.55;;;4.55;;
75616;SDS011;64200;55.426;37.758;2023-03-31T02:02:48;7.43;;;4.53;;
75616;SDS011;64200;55.426;37.758;2023-03-31T02:08:16;8.95;;;5.50;;
75616;SDS011;64200;55.426;37.758;2023-03-31T02:13:22;7.22;;;4.35;;
75616;SDS011;64200;55.426;37.758;2023-03-31T02:18:26;7.53;;;4.88;;
75616;SDS011;64200;55.426;37.758;2023-03-31T02:23:32;9.13;;;6.28;;
75616;SDS011;64200;55.426;37.758;2023-03-31T02:28:35;10.38;;;6.13;;
75616;SDS011;64200;55.426;37.758;2023-03-31T02:33:36;11.90;;;6.00;;
75616;SDS011;64200;55.426;37.758;2023-03-31T02:38:38;12.88;;;5.80;;
75616;SDS011;64200;55.426;37.758;2023-03-31T02:43:45;8.00;;;5.25;;
75616;SDS011;64200;55.426;37.758;2023-03-31T02:48:47;9.60;;;4.97;;
75616;SDS011;64200;55.426;37.758;2023-03-31T03:15:11;7.05;;;4.07;;
75616;SDS011;64200;55.426;37.758;2023-03-31T03:20:17;5.75;;;4.15;;
75616;SDS011;64200;55.426;37.758;2023-03-31T03:25:19;7.25;;;3.50;;
75616;SDS011;64200;55.426;37.758;2023-03-31T03:30:20;7.50;;;4.55;;
75616;SDS011;64200;55.426;37.758;2023-03-31T03:35:20;10.27;;;4.70;;
75616;SDS011;64200;55.426;37.758;2023-03-31T03:40:21;9.50;;;4.63;;
75616;SDS011;64200;55.426;37.758;2023-03-31T03:45:21;10.60;;;5.10;;
75616;SDS011;64200;55.426;37.758;2023-03-31T03:50:22;8.40;;;5.37;;
75616;SDS011;64200;55.426;37.758;2023-03-31T03:55:22;11.67;;;5.73;;
75616;SDS011;64200;55.426;37.758;2023-03-31T04:00:23;9.40;;;5.97;;
75616;SDS011;64200;55.426;37.758;2023-03-31T04:05:23;6.93;;;4.72;;
75616;SDS011;64200;55.426;37.758;2023-03-31T04:10:24;10.30;;;5.35;;
75616;SDS011;64200;55.426;37.758;2023-03-31T04:15:24;10.13;;;5.13;;
75616;SDS011;64200;55.426;37.758;2023-03-31T04:20:25;7.83;;;4.60;;
75616;SDS011;64200;55.426;37.758;2023-03-31T04:25:26;9.75;;;4.90;;
75616;SDS011;64200;55.426;37.758;2023-03-31T04:30:29;7.75;;;4.70;;
75616;SDS011;64200;55.426;37.758;2023-03-31T04:35:30;9.90;;;5.50;;
75616;SDS011;64200;55.426;37.758;2023-03-31T04:40:53;13.15;;;5.22;;
75616;SDS011;64200;55.426;37.758;2023-03-31T04:45:53;9.23;;;4.05;;
75616;SDS011;64200;55.426;37.758;2023-03-31T04:50:54;7.43;;;4.28;;
75616;SDS011;64200;55.426;37.758;2023-03-31T04:55:54;7.90;;;4.50;;
75616;SDS011;64200;55.426;37.758;2023-03-31T05:00:55;6.18;;;3.53;;
75616;SDS011;64200;55.426;37.758;2023-03-31T05:05:56;6.67;;;3.80;;
75616;SDS011;64200;55.426;37.758;2023-03-31T05:10:58;8.30;;;3.50;;
75616;SDS011;64200;55.426;37.758;2023-03-31T05:16:04;9.15;;;3.90;;
75616;SDS011;64200;55.426;37.758;2023-03-31T05:21:13;8.98;;;4.03;;
75616;SDS011;64200;55.426;37.758;2023-03-31T05:26:18;6.22;;;3.88;;
75616;SDS011;64200;55.426;37.758;2023-03-31T05:31:18;7.60;;;3.90;;
75616;SDS011;64200;55.426;37.758;2023-03-31T05:36:19;6.80;;;3.75;;
75616;SDS011;64200;55.426;37.758;2023-03-31T05:41:22;8.35;;;3.90;;
75616;SDS011;64200;55.426;37.758;2023-03-31T05:46:23;8.90;;;4.60;;
75616;SDS011;64200;55.426;37.758;2023-03-31T05:51:24;11.82;;;4.20;;
75616;SDS011;64200;55.426;37.758;2023-03-31T05:56:24;8.38;;;4.35;;
75616;SDS011;64200;55.426;37.758;2023-03-31T06:01:26;8.90;;;4.47;;
75616;SDS011;64200;55.426;37.758;2023-03-31T06:06:28;11.73;;;5.20;;
75616;SDS011;64200;55.426;37.758;2023-03-31T06:11:29;7.82;;;4.72;;
75616;SDS011;64200;55.426;37.758;2023-03-31T06:16:30;6.15;;;3.97;;
75616;SDS011;64200;55.426;37.758;2023-03-31T06:21:31;6.90;;;4.13;;
75616;SDS011;64200;55.426;37.758;2023-03-31T06:26:31;7.88;;;3.90;;
75616;SDS011;64200;55.426;37.758;2023-03-31T06:31:32;7.67;;;4.73;;
75616;SDS011;64200;55.426;37.758;2023-03-31T06:36:32;6.97;;;4.13;;
75616;SDS011;64200;55.426;37.758;2023-03-31T06:41:33;9.63;;;4.90;;
75616;SDS011;64200;55.426;37.758;2023-03-31T06:46:33;8.85;;;5.13;;
75616;SDS011;64200;55.426;37.758;2023-03-31T06:51:34;10.68;;;5.18;;
75616;SDS011;64200;55.426;37.758;2023-03-31T06:56:35;7.53;;;4.70;;
75616;SDS011;64200;55.426;37.758;2023-03-31T07:01:35;8.10;;;5.43;;
75616;SDS011;64200;55.426;37.758;2023-03-31T07:06:38;9.45;;;4.70;;
75616;SDS011;64200;55.426;37.758;2023-03-31T07:11:38;10.13;;;5.75;;
75616;SDS011;64200;55.426;37.758;2023-03-31T07:16:39;9.67;;;5.17;;
75616;SDS011;64200;55.426;37.758;2023-03-31T07:21:39;10.23;;;4.80;;
75616;SDS011;64200;55.426;37.758;2023-03-31T07:26:40;8.93;;;4.90;;
75616;SDS011;64200;55.426;37.758;2023-03-31T07:31:41;12.52;;;5.28;;
75616;SDS011;64200;55.426;37.758;2023-03-31T07:36:41;9.03;;;4.83;;
75616;SDS011;64200;55.426;37.758;2023-03-31T07:41:41;11.90;;;6.03;;
75616;SDS011;64200;55.426;37.758;2023-03-31T07:46:42;7.70;;;5.03;;
75616;SDS011;64200;55.426;37.758;2023-03-31T07:51:42;15.43;;;6.60;;
75616;SDS011;64200;55.426;37.758;2023-03-31T07:56:43;14.13;;;5.70;;
75616;SDS011;64200;55.426;37.758;2023-03-31T08:01:43;13.73;;;6.60;;
75616;SDS011;64200;55.426;37.758;2023-03-31T08:06:44;14.50;;;6.15;;
75616;SDS011;64200;55.426;37.758;2023-03-31T08:11:45;17.20;;;6.43;;
75616;SDS011;64200;55.426;37.758;2023-03-31T08:16:45;13.83;;;6.57;;
75616;SDS011;64200;55.426;37.758;2023-03-31T08:21:46;18.50;;;7.05;;
75616;SDS011;64200;55.426;37.758;2023-03-31T08:26:47;10.98;;;5.90;;
75616;SDS011;64200;55.426;37.758;2023-03-31T08:31:47;16.27;;;6.97;;
75616;SDS011;64200;55.426;37.758;2023-03-31T08:36:50;16.13;;;6.25;;
75616;SDS011;64200;55.426;37.758;2023-03-31T08:42:00;18.93;;;8.43;;
75616;SDS011;64200;55.426;37.758;2023-03-31T08:47:06;10.45;;;5.30;;
75616;SDS011;64200;55.426;37.758;2023-03-31T08:52:16;12.70;;;6.68;;
75616;SDS011;64200;55.426;37.758;2023-03-31T08:58:05;9.73;;;4.90;;
75616;SDS011;64200;55.426;37.758;2023-03-31T09:03:08;15.30;;;6.30;;
75616;SDS011;64200;55.426;37.758;2023-03-31T09:18:45;13.38;;;5.97;;
75616;SDS011;64200;55.426;37.758;2023-03-31T09:29:20;25.35;;;11.45;;
75616;SDS011;64200;55.426;37.758;2023-03-31T09:34:29;14.23;;;8.18;;
75616;SDS011;64200;55.426;37.758;2023-03-31T09:39:32;20.20;;;7.13;;
75616;SDS011;64200;55.426;37.758;2023-03-31T09:44:37;11.93;;;6.27;;
75616;SDS011;64200;55.426;37.758;2023-03-31T09:49:45;16.98;;;6.05;;
75616;SDS011;64200;55.426;37.758;2023-03-31T09:54:49;16.33;;;7.32;;
75616;SDS011;64200;55.426;37.758;2023-03-31T09:59:52;12.82;;;6.32;;
75616;SDS011;64200;55.426;37.758;2023-03-31T10:04:53;19.13;;;7.65;;
75616;SDS011;64200;55.426;37.758;2023-03-31T10:09:53;15.93;;;7.50;;
75616;SDS011;64200;55.426;37.758;2023-03-31T10:15:01;14.20;;;7.57;;
75616;SDS011;64200;55.426;37.758;2023-03-31T10:20:26;10.57;;;6.22;;
75616;SDS011;64200;55.426;37.758;2023-03-31T10:25:32;14.38;;;7.75;;
75616;SDS011;64200;55.426;37.758;2023-03-31T10:30:34;14.13;;;8.05;;
75616;SDS011;64200;55.426;37.758;2023-03-31T10:35:37;14.27;;;7.22;;
75616;SDS011;64200;55.426;37.758;2023-03-31T10:40:38;17.95;;;7.32;;
75616;SDS011;64200;55.426;37.758;2023-03-31T10:45:47;18.15;;;8.73;;
75616;SDS011;64200;55.426;37.758;2023-03-31T10:50:50;20.20;;;8.52;;
75616;SDS011;64200;55.426;37.758;2023-03-31T11:01:11;19.90;;;8.57;;
75616;SDS011;64200;55.426;37.758;2023-03-31T11:06:25;19.33;;;9.30;;
75616;SDS011;64200;55.426;37.758;2023-03-31T11:16:43;11.82;;;6.82;;
75616;SDS011;64200;55.426;37.758;2023-03-31T11:43:41;14.75;;;7.10;;
75616;SDS011;64200;55.426;37.758;2023-03-31T11:48:50;11.77;;;7.75;;
75616;SDS011;64200;55.426;37.758;2023-03-31T11:53:58;10.55;;;6.95;;
75616;SDS011;64200;55.426;37.758;2023-03-31T11:59:13;13.23;;;6.72;;
75616;SDS011;64200;55.426;37.758;2023-03-31T12:09:43;11.13;;;6.38;;
75616;SDS011;64200;55.426;37.758;2023-03-31T12:15:23;11.13;;;5.93;;
75616;SDS011;64200;55.426;37.758;2023-03-31T12:20:35;12.80;;;6.82;;
75616;SDS011;64200;55.426;37.758;2023-03-31T12:30:59;14.30;;;6.85;;
75616;SDS011;64200;55.426;37.758;2023-03-31T12:36:06;12.57;;;6.68;;
75616;SDS011;64200;55.426;37.758;2023-03-31T13:12:27;12.20;;;7.28;;
75616;SDS011;64200;55.426;37.758;2023-03-31T13:17:36;14.05;;;7.05;;
75616;SDS011;64200;55.426;37.758;2023-03-31T13:22:37;13.18;;;6.78;;
75616;SDS011;64200;55.426;37.758;2023-03-31T13:27:48;13.15;;;7.82;;
75616;SDS011;64200;55.426;37.758;2023-03-31T13:33:08;14.13;;;7.90;;
75616;SDS011;64200;55.426;37.758;2023-03-31T13:43:18;13.93;;;7.80;;
75616;SDS011;64200;55.426;37.758;2023-03-31T14:15:22;15.18;;;8.55;;
75616;SDS011;64200;55.426;37.758;2023-03-31T14:31:10;15.93;;;9.25;;
75616;SDS011;64200;55.426;37.758;2023-03-31T14:42:02;17.05;;;9.35;;
75616;SDS011;64200;55.426;37.758;2023-03-31T14:47:05;18.88;;;10.48;;
75616;SDS011;64200;55.426;37.758;2023-03-31T14:52:18;19.02;;;9.95;;
75616;SDS011;64200;55.426;37.758;2023-03-31T14:57:24;19.17;;;9.57;;
75616;SDS011;64200;55.426;37.758;2023-03-31T15:02:33;17.88;;;10.68;;
75616;SDS011;64200;55.426;37.758;2023-03-31T15:07:36;23.60;;;10.45;;
75616;SDS011;64200;55.426;37.758;2023-03-31T15:12:40;22.70;;;13.02;;
75616;SDS011;64200;55.426;37.758;2023-03-31T15:17:41;21.42;;;11.73;;
75616;SDS011;64200;55.426;37.758;2023-03-31T15:22:44;18.92;;;10.02;;
75616;SDS011;64200;55.426;37.758;2023-03-31T15:27:49;22.27;;;10.70;;
75616;SDS011;64200;55.426;37.758;2023-03-31T15:32:58;22.80;;;11.13;;
75616;SDS011;64200;55.426;37.758;2023-03-31T15:38:01;16.67;;;9.82;;
75616;SDS011;64200;55.426;37.758;2023-03-31T15:43:05;18.80;;;10.30;;
75616;SDS011;64200;55.426;37.758;2023-03-31T15:48:15;21.60;;;11.48;;
75616;SDS011;64200;55.426;37.758;2023-03-31T15:53:24;19.17;;;10.45;;
75616;SDS011;64200;55.426;37.758;2023-03-31T15:58:46;19.73;;;10.30;;
75616;SDS011;64200;55.426;37.758;2023-03-31T16:04:08;16.38;;;9.57;;
75616;SDS011;64200;55.426;37.758;2023-03-31T16:14:48;15.23;;;9.82;;
75616;SDS011;64200;55.426;37.758;2023-03-31T16:25:28;17.25;;;9.02;;
75616;SDS011;64200;55.426;37.758;2023-03-31T16:30:38;18.55;;;9.75;;
75616;SDS011;64200;55.426;37.758;2023-03-31T16:35:42;14.38;;;8.00;;
75616;SDS011;64200;55.426;37.758;2023-03-31T16:40:48;17.48;;;9.02;;
75616;SDS011;64200;55.426;37.758;2023-03-31T16:50:56;16.10;;;10.38;;
75616;SDS011;64200;55.426;37.758;2023-03-31T16:55:58;17.48;;;9.20;;
75616;SDS011;64200;55.426;37.758;2023-03-31T17:00:59;16.85;;;9.15;;
75616;SDS011;64200;55.426;37.758;2023-03-31T17:06:03;21.98;;;9.95;;
75616;SDS011;64200;55.426;37.758;2023-03-31T17:11:12;20.23;;;9.70;;
75616;SDS011;64200;55.426;37.758;2023-03-31T17:16:13;19.92;;;10.32;;
75616;SDS011;64200;55.426;37.758;2023-03-31T17:21:16;20.73;;;10.10;;
75616;SDS011;64200;55.426;37.758;2023-03-31T17:26:20;18.30;;;9.43;;
75616;SDS011;64200;55.426;37.758;2023-03-31T17:31:22;22.15;;;10.48;;
75616;SDS011;64200;55.426;37.758;2023-03-31T17:36:26;18.85;;;10.00;;
75616;SDS011;64200;55.426;37.758;2023-03-31T17:41:27;16.75;;;8.20;;
75616;SDS011;64200;55.426;37.758;2023-03-31T17:46:29;18.30;;;9.77;;
75616;SDS011;64200;55.426;37.758;2023-03-31T17:51:29;20.67;;;10.10;;
75616;SDS011;64200;55.426;37.758;2023-03-31T17:56:33;19.55;;;10.20;;
75616;SDS011;64200;55.426;37.758;2023-03-31T18:01:34;16.40;;;9.37;;
75616;SDS011;64200;55.426;37.758;2023-03-31T18:06:34;18.60;;;9.73;;
75616;SDS011;64200;55.426;37.758;2023-03-31T18:11:35;22.80;;;11.15;;
75616;SDS011;64200;55.426;37.758;2023-03-31T18:16:36;19.08;;;9.65;;
75616;SDS011;64200;55.426;37.758;2023-03-31T18:21:37;16.23;;;9.57;;
75616;SDS011;64200;55.426;37.758;2023-03-31T18:26:37;19.83;;;10.23;;
75616;SDS011;64200;55.426;37.758;2023-03-31T18:31:38;20.80;;;11.23;;
75616;SDS011;64200;55.426;37.758;2023-03-31T18:36:39;21.42;;;11.38;;
75616;SDS011;64200;55.426;37.758;2023-03-31T18:41:41;21.92;;;10.85;;
75616;SDS011;64200;55.426;37.758;2023-03-31T18:46:45;20.58;;;9.65;;
75616;SDS011;64200;55.426;37.758;2023-03-31T18:51:46;19.33;;;9.20;;
75616;SDS011;64200;55.426;37.758;2023-03-31T18:56:46;20.58;;;10.10;;
75616;SDS011;64200;55.426;37.758;2023-03-31T19:01:47;17.13;;;9.47;;
75616;SDS011;64200;55.426;37.758;2023-03-31T19:06:47;17.63;;;9.17;;
75616;SDS011;64200;55.426;37.758;2023-03-31T19:11:48;23.27;;;10.67;;
75616;SDS011;64200;55.426;37.758;2023-03-31T19:16:48;15.48;;;9.07;;
75616;SDS011;64200;55.426;37.758;2023-03-31T19:21:49;16.15;;;9.02;;
75616;SDS011;64200;55.426;37.758;2023-03-31T19:26:52;14.88;;;8.15;;
75616;SDS011;64200;55.426;37.758;2023-03-31T19:31:53;15.70;;;9.10;;
75616;SDS011;64200;55.426;37.758;2023-03-31T19:36:53;21.07;;;10.37;;
75616;SDS011;64200;55.426;37.758;2023-03-31T19:41:54;19.97;;;9.17;;
75616;SDS011;64200;55.426;37.758;2023-03-31T19:46:56;19.63;;;9.15;;
75616;SDS011;64200;55.426;37.758;2023-03-31T19:51:57;16.33;;;9.30;;
75616;SDS011;64200;55.426;37.758;2023-03-31T19:56:58;17.58;;;9.13;;
75616;SDS011;64200;55.426;37.758;2023-03-31T20:01:58;17.57;;;8.73;;
75616;SDS011;64200;55.426;37.758;2023-03-31T20:07:01;16.95;;;8.73;;
75616;SDS011;64200;55.426;37.758;2023-03-31T20:12:02;18.40;;;8.40;;
75616;SDS011;64200;55.426;37.758;2023-03-31T20:17:03;17.23;;;8.27;;
75616;SDS011;64200;55.426;37.758;2023-03-31T20:22:05;16.13;;;8.82;;
75616;SDS011;64200;55.426;37.758;2023-03-31T20:27:06;14.73;;;7.97;;
75616;SDS011;64200;55.426;37.758;2023-03-31T20:32:06;14.52;;;8.05;;
75616;SDS011;64200;55.426;37.758;2023-03-31T20:37:08;17.80;;;8.38;;
75616;SDS011;64200;55.426;37.758;2023-03-31T20:42:08;15.50;;;8.50;;
75616;SDS011;64200;55.426;37.758;2023-03-31T20:47:09;16.50;;;8.70;;
75616;SDS011;64200;55.426;37.758;2023-03-31T20:52:10;16.38;;;8.32;;
75616;SDS011;64200;55.426;37.758;2023-03-31T20:57:11;15.97;;;8.33;;
75616;SDS011;64200;55.426;37.758;2023-03-31T21:02:11;15.97;;;7.83;;
75616;SDS011;64200;55.426;37.758;2023-03-31T21:07:13;15.43;;;8.25;;
75616;SDS011;64200;55.426;37.758;2023-03-31T21:12:13;15.53;;;8.90;;
75616;SDS011;64200;55.426;37.758;2023-03-31T21:17:17;14.48;;;8.00;;
75616;SDS011;64200;55.426;37.758;2023-03-31T21:22:18;14.25;;;7.80;;
75616;SDS011;64200;55.426;37.758;2023-03-31T21:27:18;13.87;;;7.40;;
75616;SDS011;64200;55.426;37.758;2023-03-31T21:32:19;12.15;;;6.47;;
75616;SDS011;64200;55.426;37.758;2023-03-31T21:37:19;11.50;;;6.47;;
75616;SDS011;64200;55.426;37.758;2023-03-31T21:42:20;12.38;;;6.65;;
75616;SDS011;64200;55.426;37.758;2023-03-31T21:47:21;13.18;;;6.63;;
75616;SDS011;64200;55.426;37.758;2023-03-31T21:52:22;12.43;;;7.28;;
75616;SDS011;64200;55.426;37.758;2023-03-31T21:57:23;13.93;;;7.20;;
75616;SDS011;64200;55.426;37.758;2023-03-31T22:02:24;12.23;;;6.78;;
75616;SDS011;64200;55.426;37.758;2023-03-31T22:07:24;13.47;;;6.07;;
75616;SDS011;64200;55.426;37.758;2023-03-31T22:12:25;14.20;;;6.57;;
75616;SDS011;64200;55.426;37.758;2023-03-31T22:17:27;14.85;;;6.40;;
75616;SDS011;64200;55.426;37.758;2023-03-31T22:22:28;14.23;;;6.40;;
75616;SDS011;64200;55.426;37.758;2023-03-31T22:27:28;13.47;;;7.10;;
75616;SDS011;64200;55.426;37.758;2023-03-31T22:32:29;11.13;;;6.30;;
75616;SDS011;64200;55.426;37.758;2023-03-31T22:37:29;12.07;;;6.72;;
75616;SDS011;64200;55.426;37.758;2023-03-31T22:42:30;13.20;;;7.30;;
75616;SDS011;64200;55.426;37.758;2023-03-31T22:47:31;14.20;;;6.85;;
75616;SDS011;64200;55.426;37.758;2023-03-31T22:52:32;12.15;;;6.55;;
75616;SDS011;64200;55.426;37.758;2023-03-31T22:57:32;11.63;;;6.23;;
75616;SDS011;64200;55.426;37.758;2023-03-31T23:02:33;13.30;;;7.20;;
75616;SDS011;64200;55.426;37.758;2023-03-31T23:07:33;12.10;;;6.33;;
75616;SDS011;64200;55.426;37.758;2023-03-31T23:12:34;10.88;;;5.82;;
75616;SDS011;64200;55.426;37.758;2023-03-31T23:17:34;11.90;;;6.60;;
75616;SDS011;64200;55.426;37.758;2023-03-31T23:22:35;12.53;;;6.90;;
75616;SDS011;64200;55.426;37.758;2023-03-31T23:27:35;12.17;;;6.73;;
75616;SDS011;64200;55.426;37.758;2023-03-31T23:32:36;13.63;;;6.38;;
75616;SDS011;64200;55.426;37.758;2023-03-31T23:37:36;11.60;;;6.50;;
75616;SDS011;64200;55.426;37.758;2023-03-31T23:42:38;12.88;;;5.82;;
75616;SDS011;64200;55.426;37.758;2023-03-31T23:47:39;14.03;;;7.17;;
75616;SDS011;64200;55.426;37.758;2023-03-31T23:52:39;12.10;;;6.55;;
75616;SDS011;64200;55.426;37.758;2023-03-31T23:57:40;13.68;;;6.97;;
